createdAt,value
2023-02-06T00:00:53.651Z,86.71
2023-02-06T00:03:20.744Z,86.84
2023-02-06T00:05:55.586Z,87.19
2023-02-06T00:08:22.500Z,87.62
2023-02-06T00:10:49.436Z,88.01
2023-02-06T00:13:16.648Z,88.63
2023-02-06T00:15:44.270Z,88.55
2023-02-06T00:18:11.624Z,88.55
2023-02-06T00:20:38.789Z,87.95
2023-02-06T00:23:05.706Z,88.17
2023-02-06T00:25:32.921Z,88.09
2023-02-06T00:27:59.926Z,87.85
2023-02-06T00:30:27.181Z,87.46
2023-02-06T00:32:54.102Z,88.06
2023-02-06T00:35:21.107Z,87.99
2023-02-06T00:37:48.220Z,87.63
2023-02-06T00:40:15.155Z,88.11
2023-02-06T00:42:42.108Z,88.65
2023-02-06T00:45:10.421Z,88.72
2023-02-06T00:47:37.383Z,88.55
2023-02-06T00:50:05.975Z,88.65
2023-02-06T00:52:33.023Z,88.88
2023-02-06T00:54:59.979Z,88.69
2023-02-06T00:57:26.928Z,88.66
2023-02-06T00:59:54.433Z,88.62
2023-02-06T01:02:21.509Z,88.72
2023-02-06T01:04:48.695Z,88.50
2023-02-06T01:07:15.661Z,88.96
2023-02-06T01:09:42.518Z,89.21
2023-02-06T01:12:09.760Z,89.25
2023-02-06T01:14:36.641Z,89.63
2023-02-06T01:17:03.912Z,89.83
2023-02-06T01:19:30.929Z,89.82
2023-02-06T01:21:57.971Z,89.61
2023-02-06T01:24:24.928Z,89.31
2023-02-06T01:26:51.762Z,89.12
2023-02-06T01:29:18.604Z,89.18
2023-02-06T01:31:45.901Z,89.24
2023-02-06T01:34:12.964Z,89.53
2023-02-06T01:36:39.894Z,89.50
2023-02-06T01:39:07.426Z,89.58
2023-02-06T01:41:34.944Z,89.13
2023-02-06T01:44:13.978Z,89.45
2023-02-06T01:46:43.489Z,89.29
2023-02-06T01:49:17.191Z,89.11
2023-02-06T01:51:44.756Z,89.04
2023-02-06T01:54:13.983Z,88.32
2023-02-06T01:56:45.557Z,89.32
2023-02-06T01:59:12.816Z,89.77
2023-02-06T02:01:41.145Z,89.54
2023-02-06T02:04:13.441Z,89.03
2023-02-06T02:06:41.223Z,89.06
2023-02-06T02:09:08.310Z,88.56
2023-02-06T02:11:38.873Z,87.44
2023-02-06T02:14:10.112Z,86.99
2023-02-06T02:16:49.347Z,86.90
2023-02-06T02:19:19.160Z,86.97
2023-02-06T02:22:00.233Z,87.92
2023-02-06T02:24:48.971Z,88.62
2023-02-06T02:27:34.307Z,88.35
2023-02-06T02:30:07.736Z,87.65
2023-02-06T02:32:56.625Z,87.26
2023-02-06T02:35:53.749Z,87.29
2023-02-06T02:38:37.415Z,87.19
2023-02-06T02:41:07.799Z,87.31
2023-02-06T02:43:51.199Z,87.78
2023-02-06T02:46:31.645Z,88.60
2023-02-06T02:49:04.928Z,88.42
2023-02-06T02:51:34.271Z,87.58
2023-02-06T02:54:01.235Z,86.56
2023-02-06T02:56:29.851Z,86.41
2023-02-06T02:59:05.232Z,86.13
2023-02-06T03:01:56.173Z,86.61
2023-02-06T03:04:30.201Z,86.46
2023-02-06T03:07:06.658Z,86.78
2023-02-06T03:09:45.969Z,87.14
2023-02-06T03:12:24.352Z,87.24
2023-02-06T03:15:05.522Z,86.96
2023-02-06T03:17:44.706Z,86.88
2023-02-06T03:20:13.837Z,86.95
2023-02-06T03:22:47.106Z,87.12
2023-02-06T03:25:19.106Z,87.23
2023-02-06T03:27:47.706Z,87.39
2023-02-06T03:30:16.349Z,87.66
2023-02-06T03:32:47.278Z,88.56
2023-02-06T03:35:21.995Z,88.91
2023-02-06T03:37:49.624Z,89.35
2023-02-06T03:40:18.523Z,89.35
2023-02-06T03:42:56.287Z,89.08
2023-02-06T03:45:29.115Z,89.13
2023-02-06T03:48:03.795Z,88.96
2023-02-06T03:50:32.365Z,88.77
2023-02-06T03:53:02.231Z,88.57
2023-02-06T03:55:29.218Z,88.18
2023-02-06T03:58:01.545Z,87.91
2023-02-06T04:00:31.229Z,87.61
2023-02-06T04:02:59.350Z,87.32
2023-02-06T04:05:27.323Z,87.59
2023-02-06T04:07:56.535Z,87.72
2023-02-06T04:10:26.115Z,88.38
2023-02-06T04:12:53.700Z,89.22
2023-02-06T04:15:20.854Z,89.38
2023-02-06T04:17:59.431Z,89.05
2023-02-06T04:20:27.220Z,89.16
2023-02-06T04:22:54.293Z,89.50
2023-02-06T04:25:21.242Z,89.36
2023-02-06T04:27:48.271Z,89.66
2023-02-06T04:30:15.762Z,89.60
2023-02-06T04:32:43.947Z,89.16
2023-02-06T04:35:11.631Z,89.12
2023-02-06T04:37:38.596Z,88.59
2023-02-06T04:40:06.655Z,88.14
2023-02-06T04:42:35.483Z,88.21
2023-02-06T04:45:02.317Z,88.40
2023-02-06T04:47:29.923Z,88.31
2023-02-06T04:49:56.819Z,88.36
2023-02-06T04:52:23.781Z,88.62
2023-02-06T04:54:50.688Z,88.85
2023-02-06T04:57:17.689Z,88.94
2023-02-06T04:59:45.152Z,89.09
2023-02-06T05:02:12.142Z,88.93
2023-02-06T05:04:39.282Z,88.84
2023-02-06T05:07:06.559Z,88.93
2023-02-06T05:09:33.690Z,89.32
2023-02-06T05:12:00.659Z,89.07
2023-02-06T05:14:27.628Z,89.34
2023-02-06T05:16:54.538Z,89.29
2023-02-06T05:19:21.943Z,89.39
2023-02-06T05:21:48.855Z,89.40
2023-02-06T05:24:15.722Z,89.42
2023-02-06T05:26:42.581Z,90.27
2023-02-06T05:29:10.009Z,90.32
2023-02-06T05:31:37.188Z,90.03
2023-02-06T05:34:04.283Z,89.61
2023-02-06T05:36:31.218Z,89.33
2023-02-06T05:38:58.176Z,89.17
2023-02-06T05:41:25.645Z,89.63
2023-02-06T05:43:52.471Z,89.40
2023-02-06T05:46:19.557Z,89.28
2023-02-06T05:48:46.598Z,89.17
2023-02-06T05:51:13.770Z,88.96
2023-02-06T05:53:40.816Z,88.50
2023-02-06T05:56:07.748Z,88.36
2023-02-06T05:58:34.722Z,88.25
2023-02-06T06:01:01.868Z,88.43
2023-02-06T06:03:28.839Z,88.73
2023-02-06T06:05:55.831Z,88.42
2023-02-06T06:08:22.870Z,88.38
2023-02-06T06:10:51.405Z,88.37
2023-02-06T06:13:18.932Z,88.36
2023-02-06T06:15:45.951Z,88.18
2023-02-06T06:18:13.097Z,88.17
2023-02-06T06:20:41.481Z,88.28
2023-02-06T06:23:08.777Z,88.22
2023-02-06T06:25:36.560Z,88.62
2023-02-06T06:28:04.357Z,88.83
2023-02-06T06:30:32.021Z,89.00
2023-02-06T06:32:59.423Z,89.48
2023-02-06T06:35:26.808Z,89.57
2023-02-06T06:38:03.184Z,89.57
2023-02-06T06:40:30.196Z,89.04
2023-02-06T06:42:57.118Z,88.65
2023-02-06T06:45:24.077Z,88.94
2023-02-06T06:47:51.003Z,88.87
2023-02-06T06:50:18.182Z,89.32
2023-02-06T06:52:45.108Z,89.16
2023-02-06T06:55:12.048Z,89.43
2023-02-06T06:57:38.969Z,89.14
2023-02-06T07:00:09.332Z,88.98
2023-02-06T07:02:37.053Z,88.46
2023-02-06T07:05:04.584Z,88.80
2023-02-06T07:07:31.869Z,88.56
2023-02-06T07:10:02.116Z,87.99
2023-02-06T07:12:29.216Z,87.53
2023-02-06T07:14:56.418Z,86.75
2023-02-06T07:17:23.446Z,86.19
2023-02-06T07:19:52.514Z,86.05
2023-02-06T07:22:20.308Z,86.28
2023-02-06T07:24:47.672Z,85.06
2023-02-06T07:27:14.861Z,84.47
2023-02-06T07:29:41.756Z,83.78
2023-02-06T07:32:08.756Z,83.58
2023-02-06T07:34:36.257Z,83.31
2023-02-06T07:37:04.815Z,83.16
2023-02-06T07:39:32.166Z,81.88
2023-02-06T07:41:59.216Z,81.59
2023-02-06T07:44:26.377Z,80.18
2023-02-06T07:46:53.257Z,78.56
2023-02-06T07:49:20.350Z,78.75
2023-02-06T07:51:47.914Z,76.40
2023-02-06T07:54:15.338Z,75.64
2023-02-06T07:56:42.965Z,75.95
2023-02-06T07:59:10.574Z,73.37
2023-02-06T08:01:37.581Z,71.52
2023-02-06T08:04:04.629Z,70.37
2023-02-06T08:06:31.595Z,69.74
2023-02-06T08:08:58.478Z,66.91
2023-02-06T08:11:27.820Z,66.54
2023-02-06T08:13:54.674Z,65.09
2023-02-06T08:16:23.131Z,65.36
2023-02-06T08:18:50.517Z,63.66
2023-02-06T08:21:21.175Z,60.56
2023-02-06T08:23:53.848Z,61.10
2023-02-06T08:26:22.000Z,61.67
2023-02-06T08:28:50.818Z,60.35
2023-02-06T08:31:23.820Z,60.63
2023-02-06T08:33:51.685Z,57.46
2023-02-06T08:36:21.954Z,57.44
2023-02-06T08:38:52.539Z,56.20
2023-02-06T08:41:24.637Z,57.04
2023-02-06T08:43:56.361Z,54.47
2023-02-06T08:46:25.351Z,53.91
2023-02-06T08:49:01.311Z,53.21
2023-02-06T08:51:28.529Z,53.84
2023-02-06T08:53:57.254Z,51.67
2023-02-06T08:56:24.717Z,52.31
2023-02-06T08:58:51.943Z,52.88
2023-02-06T09:01:19.176Z,52.96
2023-02-06T09:03:46.985Z,51.78
2023-02-06T09:06:15.108Z,52.55
2023-02-06T09:08:42.580Z,51.34
2023-02-06T09:11:17.841Z,49.09
2023-02-06T09:13:49.269Z,50.30
2023-02-06T09:16:18.540Z,49.10
2023-02-06T17:33:21.195Z,68.55
2023-02-06T17:35:49.186Z,68.62
2023-02-06T17:38:16.698Z,68.07
2023-02-06T17:40:45.001Z,68.68
2023-02-06T17:43:12.036Z,68.33
2023-02-06T17:45:41.201Z,69.14
2023-02-06T17:48:08.939Z,68.55
2023-02-06T17:50:38.280Z,67.96
2023-02-06T17:53:07.472Z,69.21
2023-02-06T17:55:35.509Z,69.19
2023-02-06T17:58:04.368Z,70.16
2023-02-06T18:00:33.256Z,71.69
2023-02-06T18:03:00.873Z,70.93
2023-02-06T18:05:28.174Z,70.08
2023-02-06T18:07:56.281Z,69.42
2023-02-06T18:10:26.400Z,70.20
2023-02-06T18:12:53.949Z,69.75
2023-02-06T18:15:21.812Z,69.60
2023-02-06T18:17:54.973Z,69.62
2023-02-06T18:20:23.327Z,70.81
2023-02-06T18:22:51.297Z,70.48
2023-02-06T18:25:19.095Z,71.52
2023-02-06T18:27:46.888Z,72.91
2023-02-06T18:30:17.378Z,72.85
2023-02-06T18:32:45.707Z,72.12
2023-02-06T18:35:15.441Z,72.65
2023-02-06T18:37:44.393Z,73.23
2023-02-06T18:40:12.849Z,72.38
2023-02-06T18:45:50.657Z,72.90
2023-02-06T18:48:19.369Z,72.46
2023-02-06T18:50:47.082Z,73.08
2023-02-06T18:53:16.428Z,73.80
2023-02-06T18:55:44.933Z,73.91
2023-02-06T18:58:13.075Z,73.81
2023-02-06T19:00:45.579Z,73.64
2023-02-06T19:03:14.041Z,73.40
2023-02-06T19:05:42.463Z,73.62
2023-02-06T19:08:11.273Z,74.60
2023-02-06T19:10:40.843Z,75.49
2023-02-06T19:13:09.024Z,75.62
2023-02-06T19:15:39.203Z,75.24
2023-02-06T19:18:08.318Z,74.35
2023-02-06T19:20:37.145Z,75.40
2023-02-06T19:23:06.692Z,75.76
2023-02-06T19:25:36.702Z,74.86
2023-02-06T19:28:05.036Z,74.76
2023-02-06T19:30:34.601Z,74.96
2023-02-06T19:33:02.217Z,74.21
2023-02-06T19:35:30.663Z,74.58
2023-02-06T19:38:02.424Z,74.67
2023-02-06T19:40:30.808Z,75.12
2023-02-06T19:43:00.127Z,75.33
2023-02-06T19:45:28.939Z,75.64
2023-02-06T19:47:57.832Z,76.63
2023-02-06T19:50:25.552Z,75.95
2023-02-06T19:52:54.690Z,76.75
2023-02-06T19:55:23.140Z,75.87
2023-02-06T19:57:51.685Z,76.64
2023-02-06T20:00:20.646Z,77.27
2023-02-06T20:02:49.282Z,77.80
2023-02-06T20:05:20.696Z,78.26
2023-02-06T20:07:48.794Z,78.99
2023-02-06T20:10:19.069Z,78.61
2023-02-06T20:12:49.518Z,78.44
2023-02-06T20:15:18.978Z,78.87
2023-02-06T20:17:53.032Z,79.70
2023-02-06T20:20:21.609Z,79.88
2023-02-06T20:22:53.276Z,80.26
2023-02-06T20:25:21.984Z,80.90
2023-02-06T20:27:50.694Z,80.70
2023-02-06T20:30:28.526Z,80.88
2023-02-06T20:32:59.084Z,80.94
2023-02-06T20:35:27.080Z,81.65
2023-02-06T20:37:55.579Z,82.23
2023-02-06T20:40:23.678Z,82.93
2023-02-06T20:42:51.958Z,83.26
2023-02-06T20:45:19.907Z,83.37
2023-02-06T20:47:47.651Z,83.44
2023-02-06T20:50:17.174Z,83.38
2023-02-06T20:52:47.978Z,83.65
2023-02-06T20:55:15.555Z,83.78
2023-02-06T20:57:43.385Z,83.79
2023-02-06T21:00:13.751Z,84.10
2023-02-06T21:02:41.092Z,84.18
2023-02-06T21:05:08.768Z,84.06
2023-02-06T21:07:38.219Z,84.30
2023-02-06T21:10:05.985Z,84.43
2023-02-06T21:12:33.544Z,84.29
2023-02-06T21:15:03.518Z,84.79
2023-02-06T21:17:30.523Z,84.96
2023-02-06T21:19:59.959Z,84.54
2023-02-06T21:22:27.253Z,85.22
2023-02-06T21:24:54.689Z,84.96
2023-02-06T21:27:21.669Z,84.93
2023-02-06T21:29:48.620Z,85.17
2023-02-06T21:32:15.763Z,85.03
2023-02-06T21:34:42.944Z,85.84
2023-02-06T21:37:09.963Z,85.41
2023-02-06T21:39:38.846Z,85.24
2023-02-06T21:42:06.698Z,84.98
2023-02-06T21:44:34.222Z,85.08
2023-02-06T21:47:01.091Z,85.23
2023-02-06T21:49:28.095Z,85.15
2023-02-06T21:51:58.566Z,85.28
2023-02-06T21:54:25.897Z,85.45
2023-02-06T21:56:52.941Z,85.51
2023-02-06T21:59:19.813Z,85.47
2023-02-06T22:01:46.742Z,85.69
2023-02-06T22:04:13.646Z,85.42
2023-02-06T22:06:40.971Z,85.54
2023-02-06T22:09:15.164Z,86.13
2023-02-06T22:11:42.608Z,86.48
2023-02-06T22:14:13.431Z,87.18
2023-02-06T22:16:40.905Z,86.81
2023-02-06T22:19:08.158Z,87.16
2023-02-06T22:21:35.982Z,86.97
2023-02-06T22:24:06.282Z,87.43
2023-02-06T22:26:36.903Z,87.64
2023-02-06T22:29:05.823Z,87.74
2023-02-06T22:31:35.172Z,87.56
2023-02-06T22:34:02.989Z,87.43
2023-02-06T22:36:32.130Z,87.22
2023-02-06T22:39:10.065Z,86.91
2023-02-06T22:41:39.502Z,87.02
2023-02-06T22:44:06.630Z,86.64
2023-02-06T22:46:36.493Z,86.62
2023-02-06T22:49:06.144Z,86.67
2023-02-06T22:51:33.477Z,86.35
2023-02-06T22:54:00.771Z,85.89
2023-02-06T22:56:36.151Z,85.92
2023-02-06T22:59:12.698Z,85.99
2023-02-06T23:01:45.588Z,86.51
2023-02-06T23:04:23.295Z,87.10
2023-02-06T23:06:51.197Z,87.21
2023-02-06T23:09:27.177Z,87.40
2023-02-06T23:11:54.991Z,87.62
2023-02-06T23:14:21.930Z,87.94
2023-02-06T23:16:49.129Z,87.59
2023-02-06T23:19:17.040Z,87.51
2023-02-06T23:21:46.354Z,87.78
2023-02-06T23:24:14.292Z,87.65
2023-02-06T23:26:43.725Z,88.02
2023-02-06T23:29:15.894Z,88.59
2023-02-06T23:31:44.578Z,88.34
2023-02-06T23:34:12.589Z,87.93
2023-02-06T23:36:39.760Z,87.70
2023-02-06T23:39:06.778Z,87.63
2023-02-06T23:41:34.497Z,87.81
2023-02-06T23:44:04.724Z,87.72
2023-02-06T23:46:33.687Z,88.06
2023-02-06T23:49:00.674Z,87.96
2023-02-06T23:51:27.775Z,87.89
2023-02-06T23:53:54.809Z,88.07
2023-02-06T23:56:25.307Z,88.30
2023-02-06T23:58:53.827Z,88.12
